sensor_id;sensor_type;location;lat;lon;timestamp;P1;durP1;ratioP1;P2;durP2;ratioP2
9712;SDS011;4895;50.926;6.870;2023-02-22T00:00:38;255.07;;;36.20;;
9712;SDS011;4895;50.926;6.870;2023-02-22T00:03:11;204.30;;;38.60;;
9712;SDS011;4895;50.926;6.870;2023-02-22T00:05:40;238.63;;;37.43;;
9712;SDS011;4895;50.926;6.870;2023-02-22T00:08:11;229.30;;;35.90;;
9712;SDS011;4895;50.926;6.870;2023-02-22T00:10:37;189.53;;;38.67;;
9712;SDS011;4895;50.926;6.870;2023-02-22T00:13:03;289.50;;;38.37;;
9712;SDS011;4895;50.926;6.870;2023-02-22T00:15:29;212.03;;;36.73;;
9712;SDS011;4895;50.926;6.870;2023-02-22T00:17:55;258.10;;;39.87;;
9712;SDS011;4895;50.926;6.870;2023-02-22T00:20:21;256.10;;;38.90;;
9712;SDS011;4895;50.926;6.870;2023-02-22T00:22:47;223.57;;;35.07;;
9712;SDS011;4895;50.926;6.870;2023-02-22T00:25:13;262.33;;;36.47;;
9712;SDS011;4895;50.926;6.870;2023-02-22T00:27:41;248.57;;;37.70;;
9712;SDS011;4895;50.926;6.870;2023-02-22T00:30:07;241.37;;;37.83;;
9712;SDS011;4895;50.926;6.870;2023-02-22T00:32:34;229.63;;;36.10;;
9712;SDS011;4895;50.926;6.870;2023-02-22T00:34:59;299.83;;;38.20;;
9712;SDS011;4895;50.926;6.870;2023-02-22T00:37:24;226.03;;;35.30;;
9712;SDS011;4895;50.926;6.870;2023-02-22T00:39:50;308.90;;;35.77;;
9712;SDS011;4895;50.926;6.870;2023-02-22T00:42:16;233.30;;;36.47;;
9712;SDS011;4895;50.926;6.870;2023-02-22T00:44:42;340.90;;;38.17;;
9712;SDS011;4895;50.926;6.870;2023-02-22T00:47:07;283.70;;;36.00;;
9712;SDS011;4895;50.926;6.870;2023-02-22T00:49:33;283.63;;;34.60;;
9712;SDS011;4895;50.926;6.870;2023-02-22T00:51:59;274.47;;;36.30;;
9712;SDS011;4895;50.926;6.870;2023-02-22T00:54:24;289.13;;;36.13;;
9712;SDS011;4895;50.926;6.870;2023-02-22T00:56:50;319.47;;;36.73;;
9712;SDS011;4895;50.926;6.870;2023-02-22T00:59:15;303.80;;;35.97;;
9712;SDS011;4895;50.926;6.870;2023-02-22T01:01:40;371.93;;;42.37;;
9712;SDS011;4895;50.926;6.870;2023-02-22T01:04:07;297.93;;;39.20;;
9712;SDS011;4895;50.926;6.870;2023-02-22T01:06:32;258.43;;;35.27;;
9712;SDS011;4895;50.926;6.870;2023-02-22T01:08:58;307.87;;;37.57;;
9712;SDS011;4895;50.926;6.870;2023-02-22T01:11:23;332.20;;;34.17;;
9712;SDS011;4895;50.926;6.870;2023-02-22T01:13:49;279.87;;;37.00;;
9712;SDS011;4895;50.926;6.870;2023-02-22T01:16:18;168.27;;;34.03;;
9712;SDS011;4895;50.926;6.870;2023-02-22T01:18:43;236.90;;;33.80;;
9712;SDS011;4895;50.926;6.870;2023-02-22T01:21:08;294.73;;;36.03;;
9712;SDS011;4895;50.926;6.870;2023-02-22T01:23:34;270.00;;;38.00;;
9712;SDS011;4895;50.926;6.870;2023-02-22T01:25:59;179.67;;;33.93;;
9712;SDS011;4895;50.926;6.870;2023-02-22T01:28:24;213.23;;;36.27;;
9712;SDS011;4895;50.926;6.870;2023-02-22T01:30:50;220.40;;;33.07;;
9712;SDS011;4895;50.926;6.870;2023-02-22T01:33:15;203.07;;;36.50;;
9712;SDS011;4895;50.926;6.870;2023-02-22T01:35:41;143.43;;;36.70;;
9712;SDS011;4895;50.926;6.870;2023-02-22T01:38:08;166.43;;;34.80;;
9712;SDS011;4895;50.926;6.870;2023-02-22T01:40:38;207.73;;;36.40;;
9712;SDS011;4895;50.926;6.870;2023-02-22T01:43:20;148.83;;;34.57;;
9712;SDS011;4895;50.926;6.870;2023-02-22T01:53:35;252.17;;;37.00;;
9712;SDS011;4895;50.926;6.870;2023-02-22T01:56:03;295.57;;;39.37;;
9712;SDS011;4895;50.926;6.870;2023-02-22T01:58:29;203.37;;;37.47;;
9712;SDS011;4895;50.926;6.870;2023-02-22T02:00:56;286.30;;;40.50;;
9712;SDS011;4895;50.926;6.870;2023-02-22T02:03:23;178.97;;;38.03;;
9712;SDS011;4895;50.926;6.870;2023-02-22T02:05:51;204.67;;;36.03;;
9712;SDS011;4895;50.926;6.870;2023-02-22T02:08:20;215.70;;;37.63;;
9712;SDS011;4895;50.926;6.870;2023-02-22T02:10:56;186.37;;;35.57;;
9712;SDS011;4895;50.926;6.870;2023-02-22T02:13:22;221.43;;;38.47;;
9712;SDS011;4895;50.926;6.870;2023-02-22T02:15:48;165.77;;;36.60;;
9712;SDS011;4895;50.926;6.870;2023-02-22T02:18:17;205.20;;;39.97;;
9712;SDS011;4895;50.926;6.870;2023-02-22T02:37:03;159.73;;;40.27;;
9712;SDS011;4895;50.926;6.870;2023-02-22T02:42:20;168.73;;;38.50;;
9712;SDS011;4895;50.926;6.870;2023-02-22T02:44:50;245.80;;;40.53;;
9712;SDS011;4895;50.926;6.870;2023-02-22T02:47:21;257.80;;;38.50;;
9712;SDS011;4895;50.926;6.870;2023-02-22T02:52:32;268.43;;;39.70;;
9712;SDS011;4895;50.926;6.870;2023-02-22T02:54:58;252.43;;;40.77;;
9712;SDS011;4895;50.926;6.870;2023-02-22T02:57:25;165.63;;;38.40;;
9712;SDS011;4895;50.926;6.870;2023-02-22T02:59:50;152.40;;;39.47;;
9712;SDS011;4895;50.926;6.870;2023-02-22T03:16:01;272.13;;;41.50;;
9712;SDS011;4895;50.926;6.870;2023-02-22T03:21:23;244.67;;;39.03;;
9712;SDS011;4895;50.926;6.870;2023-02-22T03:27:02;278.17;;;39.30;;
9712;SDS011;4895;50.926;6.870;2023-02-22T03:29:49;220.63;;;38.10;;
9712;SDS011;4895;50.926;6.870;2023-02-22T03:32:18;256.30;;;40.60;;
9712;SDS011;4895;50.926;6.870;2023-02-22T03:34:48;176.80;;;38.03;;
9712;SDS011;4895;50.926;6.870;2023-02-22T03:37:18;185.90;;;38.03;;
9712;SDS011;4895;50.926;6.870;2023-02-22T03:39:46;190.80;;;38.47;;
9712;SDS011;4895;50.926;6.870;2023-02-22T03:42:15;229.47;;;40.10;;
9712;SDS011;4895;50.926;6.870;2023-02-22T03:44:42;201.47;;;36.00;;
9712;SDS011;4895;50.926;6.870;2023-02-22T03:47:10;292.70;;;37.90;;
9712;SDS011;4895;50.926;6.870;2023-02-22T03:49:43;226.67;;;36.33;;
9712;SDS011;4895;50.926;6.870;2023-02-22T03:52:14;228.00;;;35.27;;
9712;SDS011;4895;50.926;6.870;2023-02-22T03:54:39;406.80;;;39.73;;
9712;SDS011;4895;50.926;6.870;2023-02-22T03:57:11;278.37;;;37.63;;
9712;SDS011;4895;50.926;6.870;2023-02-22T03:59:39;172.40;;;34.27;;
9712;SDS011;4895;50.926;6.870;2023-02-22T04:02:05;195.90;;;34.20;;
9712;SDS011;4895;50.926;6.870;2023-02-22T04:04:30;204.90;;;32.63;;
9712;SDS011;4895;50.926;6.870;2023-02-22T04:06:55;165.43;;;36.47;;
9712;SDS011;4895;50.926;6.870;2023-02-22T04:09:22;186.10;;;34.67;;
9712;SDS011;4895;50.926;6.870;2023-02-22T04:11:47;241.80;;;34.70;;
9712;SDS011;4895;50.926;6.870;2023-02-22T04:14:13;210.97;;;34.50;;
9712;SDS011;4895;50.926;6.870;2023-02-22T04:16:38;176.87;;;36.63;;
9712;SDS011;4895;50.926;6.870;2023-02-22T04:19:03;141.20;;;34.77;;
9712;SDS011;4895;50.926;6.870;2023-02-22T04:21:30;161.00;;;35.13;;
9712;SDS011;4895;50.926;6.870;2023-02-22T04:23:55;112.13;;;33.13;;
9712;SDS011;4895;50.926;6.870;2023-02-22T04:26:20;237.37;;;33.30;;
9712;SDS011;4895;50.926;6.870;2023-02-22T04:28:46;175.47;;;32.17;;
9712;SDS011;4895;50.926;6.870;2023-02-22T04:31:11;116.23;;;31.07;;
9712;SDS011;4895;50.926;6.870;2023-02-22T04:33:36;172.83;;;32.30;;
9712;SDS011;4895;50.926;6.870;2023-02-22T04:36:02;111.53;;;32.20;;
9712;SDS011;4895;50.926;6.870;2023-02-22T04:38:27;127.53;;;31.50;;
9712;SDS011;4895;50.926;6.870;2023-02-22T04:40:54;196.57;;;30.50;;
9712;SDS011;4895;50.926;6.870;2023-02-22T04:43:20;169.07;;;31.83;;
9712;SDS011;4895;50.926;6.870;2023-02-22T04:45:45;230.27;;;32.90;;
9712;SDS011;4895;50.926;6.870;2023-02-22T04:48:11;160.40;;;30.77;;
9712;SDS011;4895;50.926;6.870;2023-02-22T04:50:36;208.33;;;33.03;;
9712;SDS011;4895;50.926;6.870;2023-02-22T04:53:02;161.83;;;31.13;;
9712;SDS011;4895;50.926;6.870;2023-02-22T04:55:27;132.97;;;29.87;;
9712;SDS011;4895;50.926;6.870;2023-02-22T04:57:53;200.17;;;31.70;;
9712;SDS011;4895;50.926;6.870;2023-02-22T05:00:19;116.93;;;30.93;;
9712;SDS011;4895;50.926;6.870;2023-02-22T05:02:48;167.57;;;31.63;;
9712;SDS011;4895;50.926;6.870;2023-02-22T05:05:14;168.47;;;30.57;;
9712;SDS011;4895;50.926;6.870;2023-02-22T05:07:41;169.50;;;33.03;;
9712;SDS011;4895;50.926;6.870;2023-02-22T05:10:06;164.03;;;32.40;;
9712;SDS011;4895;50.926;6.870;2023-02-22T05:12:32;154.73;;;31.20;;
9712;SDS011;4895;50.926;6.870;2023-02-22T05:14:59;190.43;;;34.23;;
9712;SDS011;4895;50.926;6.870;2023-02-22T05:17:24;170.77;;;32.50;;
9712;SDS011;4895;50.926;6.870;2023-02-22T05:19:49;141.93;;;31.50;;
9712;SDS011;4895;50.926;6.870;2023-02-22T05:22:15;99.43;;;30.33;;
9712;SDS011;4895;50.926;6.870;2023-02-22T05:24:40;218.67;;;34.33;;
9712;SDS011;4895;50.926;6.870;2023-02-22T05:27:05;179.93;;;31.57;;
9712;SDS011;4895;50.926;6.870;2023-02-22T05:29:30;151.50;;;30.10;;
9712;SDS011;4895;50.926;6.870;2023-02-22T05:31:56;114.20;;;29.97;;
9712;SDS011;4895;50.926;6.870;2023-02-22T05:34:22;112.47;;;30.47;;
9712;SDS011;4895;50.926;6.870;2023-02-22T05:36:47;110.90;;;32.40;;
9712;SDS011;4895;50.926;6.870;2023-02-22T05:39:13;139.87;;;30.70;;
9712;SDS011;4895;50.926;6.870;2023-02-22T05:41:38;138.77;;;29.53;;
9712;SDS011;4895;50.926;6.870;2023-02-22T05:44:03;178.33;;;32.30;;
9712;SDS011;4895;50.926;6.870;2023-02-22T05:46:29;142.63;;;30.40;;
9712;SDS011;4895;50.926;6.870;2023-02-22T05:48:54;139.63;;;29.30;;
9712;SDS011;4895;50.926;6.870;2023-02-22T05:51:19;197.33;;;32.97;;
9712;SDS011;4895;50.926;6.870;2023-02-22T05:53:45;166.80;;;29.53;;
9712;SDS011;4895;50.926;6.870;2023-02-22T05:56:10;176.67;;;31.10;;
9712;SDS011;4895;50.926;6.870;2023-02-22T05:58:35;78.53;;;30.03;;
9712;SDS011;4895;50.926;6.870;2023-02-22T06:01:01;184.53;;;30.53;;
9712;SDS011;4895;50.926;6.870;2023-02-22T06:03:26;159.20;;;30.70;;
9712;SDS011;4895;50.926;6.870;2023-02-22T06:05:51;184.30;;;32.53;;
9712;SDS011;4895;50.926;6.870;2023-02-22T06:08:16;153.13;;;29.00;;
9712;SDS011;4895;50.926;6.870;2023-02-22T06:10:42;104.87;;;29.30;;
9712;SDS011;4895;50.926;6.870;2023-02-22T06:13:08;112.67;;;29.73;;
9712;SDS011;4895;50.926;6.870;2023-02-22T06:15:33;118.90;;;32.93;;
9712;SDS011;4895;50.926;6.870;2023-02-22T06:17:59;131.80;;;28.90;;
9712;SDS011;4895;50.926;6.870;2023-02-22T06:20:26;146.70;;;30.13;;
9712;SDS011;4895;50.926;6.870;2023-02-22T06:22:54;164.20;;;31.80;;
9712;SDS011;4895;50.926;6.870;2023-02-22T06:25:22;212.17;;;31.90;;
9712;SDS011;4895;50.926;6.870;2023-02-22T06:27:49;168.53;;;31.83;;
9712;SDS011;4895;50.926;6.870;2023-02-22T06:30:15;191.20;;;31.73;;
9712;SDS011;4895;50.926;6.870;2023-02-22T06:32:42;157.30;;;34.50;;
9712;SDS011;4895;50.926;6.870;2023-02-22T06:35:07;165.97;;;32.30;;
9712;SDS011;4895;50.926;6.870;2023-02-22T06:37:33;194.73;;;32.00;;
9712;SDS011;4895;50.926;6.870;2023-02-22T06:39:58;221.77;;;32.43;;
9712;SDS011;4895;50.926;6.870;2023-02-22T06:42:23;114.27;;;29.13;;
9712;SDS011;4895;50.926;6.870;2023-02-22T06:44:49;222.73;;;34.33;;
9712;SDS011;4895;50.926;6.870;2023-02-22T06:47:14;132.90;;;30.10;;
9712;SDS011;4895;50.926;6.870;2023-02-22T06:49:39;194.77;;;31.30;;
9712;SDS011;4895;50.926;6.870;2023-02-22T06:52:05;205.37;;;32.70;;
9712;SDS011;4895;50.926;6.870;2023-02-22T06:54:32;153.13;;;29.37;;
9712;SDS011;4895;50.926;6.870;2023-02-22T06:56:57;142.13;;;33.50;;
9712;SDS011;4895;50.926;6.870;2023-02-22T06:59:22;164.80;;;28.40;;
9712;SDS011;4895;50.926;6.870;2023-02-22T07:01:48;185.40;;;29.87;;
9712;SDS011;4895;50.926;6.870;2023-02-22T07:04:13;105.50;;;30.00;;
9712;SDS011;4895;50.926;6.870;2023-02-22T07:06:43;139.53;;;27.90;;
9712;SDS011;4895;50.926;6.870;2023-02-22T07:09:09;103.03;;;28.83;;
9712;SDS011;4895;50.926;6.870;2023-02-22T07:11:37;130.60;;;29.97;;
9712;SDS011;4895;50.926;6.870;2023-02-22T07:14:03;94.93;;;28.10;;
9712;SDS011;4895;50.926;6.870;2023-02-22T07:16:28;75.70;;;27.60;;
9712;SDS011;4895;50.926;6.870;2023-02-22T07:18:54;78.97;;;28.47;;
9712;SDS011;4895;50.926;6.870;2023-02-22T07:21:19;63.27;;;27.33;;
9712;SDS011;4895;50.926;6.870;2023-02-22T07:23:51;66.20;;;27.50;;
9712;SDS011;4895;50.926;6.870;2023-02-22T07:26:17;70.63;;;27.80;;
9712;SDS011;4895;50.926;6.870;2023-02-22T07:28:43;62.00;;;28.07;;
9712;SDS011;4895;50.926;6.870;2023-02-22T07:31:08;55.50;;;25.17;;
9712;SDS011;4895;50.926;6.870;2023-02-22T07:33:33;55.90;;;24.43;;
9712;SDS011;4895;50.926;6.870;2023-02-22T07:35:59;60.37;;;25.30;;
9712;SDS011;4895;50.926;6.870;2023-02-22T07:38:24;43.10;;;23.07;;
9712;SDS011;4895;50.926;6.870;2023-02-22T07:40:50;51.80;;;22.80;;
9712;SDS011;4895;50.926;6.870;2023-02-22T07:43:21;52.63;;;23.80;;
9712;SDS011;4895;50.926;6.870;2023-02-22T07:45:53;46.97;;;21.80;;
9712;SDS011;4895;50.926;6.870;2023-02-22T07:48:20;42.03;;;20.80;;
9712;SDS011;4895;50.926;6.870;2023-02-22T07:50:46;44.53;;;21.70;;
9712;SDS011;4895;50.926;6.870;2023-02-22T07:53:14;45.17;;;22.10;;
9712;SDS011;4895;50.926;6.870;2023-02-22T07:55:42;50.50;;;22.57;;
9712;SDS011;4895;50.926;6.870;2023-02-22T07:58:07;49.13;;;23.10;;
9712;SDS011;4895;50.926;6.870;2023-02-22T08:03:00;52.40;;;23.40;;
9712;SDS011;4895;50.926;6.870;2023-02-22T08:05:27;46.57;;;21.83;;
9712;SDS011;4895;50.926;6.870;2023-02-22T08:07:54;42.50;;;21.90;;
9712;SDS011;4895;50.926;6.870;2023-02-22T08:10:20;44.80;;;22.10;;
9712;SDS011;4895;50.926;6.870;2023-02-22T08:12:47;43.53;;;20.80;;
9712;SDS011;4895;50.926;6.870;2023-02-22T08:15:15;43.47;;;22.40;;
9712;SDS011;4895;50.926;6.870;2023-02-22T08:17:42;43.63;;;22.27;;
9712;SDS011;4895;50.926;6.870;2023-02-22T08:20:07;39.93;;;20.77;;
9712;SDS011;4895;50.926;6.870;2023-02-22T08:22:33;43.20;;;21.00;;
9712;SDS011;4895;50.926;6.870;2023-02-22T08:24:58;36.40;;;20.27;;
9712;SDS011;4895;50.926;6.870;2023-02-22T08:27:24;40.00;;;21.13;;
9712;SDS011;4895;50.926;6.870;2023-02-22T08:29:51;29.90;;;18.23;;
9712;SDS011;4895;50.926;6.870;2023-02-22T08:32:16;35.83;;;18.47;;
9712;SDS011;4895;50.926;6.870;2023-02-22T08:34:42;37.20;;;21.27;;
9712;SDS011;4895;50.926;6.870;2023-02-22T08:37:07;44.40;;;18.87;;
9712;SDS011;4895;50.926;6.870;2023-02-22T08:39:32;38.70;;;18.93;;
9712;SDS011;4895;50.926;6.870;2023-02-22T08:41:58;30.87;;;17.40;;
9712;SDS011;4895;50.926;6.870;2023-02-22T08:44:23;36.70;;;18.50;;
9712;SDS011;4895;50.926;6.870;2023-02-22T08:46:48;29.00;;;14.00;;
9712;SDS011;4895;50.926;6.870;2023-02-22T08:49:15;37.57;;;19.10;;
9712;SDS011;4895;50.926;6.870;2023-02-22T08:51:40;33.93;;;18.87;;
9712;SDS011;4895;50.926;6.870;2023-02-22T08:54:06;32.10;;;16.93;;
9712;SDS011;4895;50.926;6.870;2023-02-22T08:56:31;33.30;;;18.93;;
9712;SDS011;4895;50.926;6.870;2023-02-22T08:58:57;30.40;;;17.90;;
9712;SDS011;4895;50.926;6.870;2023-02-22T09:01:22;33.93;;;17.70;;
9712;SDS011;4895;50.926;6.870;2023-02-22T09:03:53;29.10;;;16.63;;
9712;SDS011;4895;50.926;6.870;2023-02-22T09:06:19;29.80;;;16.50;;
9712;SDS011;4895;50.926;6.870;2023-02-22T09:08:45;26.50;;;15.37;;
9712;SDS011;4895;50.926;6.870;2023-02-22T09:11:10;31.53;;;17.40;;
9712;SDS011;4895;50.926;6.870;2023-02-22T09:13:35;27.90;;;16.17;;
9712;SDS011;4895;50.926;6.870;2023-02-22T09:16:01;29.30;;;16.63;;
9712;SDS011;4895;50.926;6.870;2023-02-22T09:18:26;36.53;;;17.00;;
9712;SDS011;4895;50.926;6.870;2023-02-22T09:20:52;27.50;;;16.17;;
9712;SDS011;4895;50.926;6.870;2023-02-22T09:23:18;28.03;;;16.53;;
9712;SDS011;4895;50.926;6.870;2023-02-22T09:25:45;22.87;;;13.83;;
9712;SDS011;4895;50.926;6.870;2023-02-22T09:28:13;33.90;;;17.50;;
9712;SDS011;4895;50.926;6.870;2023-02-22T09:30:39;33.90;;;16.00;;
9712;SDS011;4895;50.926;6.870;2023-02-22T09:35:34;28.10;;;16.97;;
9712;SDS011;4895;50.926;6.870;2023-02-22T09:38:00;33.70;;;16.03;;
9712;SDS011;4895;50.926;6.870;2023-02-22T09:40:26;33.60;;;16.77;;
9712;SDS011;4895;50.926;6.870;2023-02-22T09:43:01;33.23;;;17.77;;
9712;SDS011;4895;50.926;6.870;2023-02-22T09:45:50;34.70;;;16.73;;
9712;SDS011;4895;50.926;6.870;2023-02-22T09:48:22;29.83;;;15.57;;
9712;SDS011;4895;50.926;6.870;2023-02-22T09:50:50;26.90;;;15.73;;
9712;SDS011;4895;50.926;6.870;2023-02-22T09:53:20;26.20;;;15.63;;
9712;SDS011;4895;50.926;6.870;2023-02-22T09:55:53;30.50;;;16.23;;
9712;SDS011;4895;50.926;6.870;2023-02-22T09:58:32;35.73;;;15.47;;
9712;SDS011;4895;50.926;6.870;2023-02-22T10:03:55;31.67;;;15.50;;
9712;SDS011;4895;50.926;6.870;2023-02-22T10:06:24;28.30;;;14.83;;
9712;SDS011;4895;50.926;6.870;2023-02-22T10:08:50;27.07;;;14.67;;
9712;SDS011;4895;50.926;6.870;2023-02-22T10:16:38;23.50;;;14.40;;
9712;SDS011;4895;50.926;6.870;2023-02-22T10:27:34;28.87;;;15.70;;
9712;SDS011;4895;50.926;6.870;2023-02-22T10:32:50;35.63;;;15.13;;
9712;SDS011;4895;50.926;6.870;2023-02-22T10:35:21;24.13;;;14.67;;
9712;SDS011;4895;50.926;6.870;2023-02-22T10:37:47;22.50;;;12.67;;
9712;SDS011;4895;50.926;6.870;2023-02-22T10:40:17;22.07;;;13.77;;
9712;SDS011;4895;50.926;6.870;2023-02-22T10:42:55;26.57;;;15.03;;
9712;SDS011;4895;50.926;6.870;2023-02-22T10:45:23;26.03;;;13.70;;
9712;SDS011;4895;50.926;6.870;2023-02-22T10:47:51;25.90;;;13.90;;
9712;SDS011;4895;50.926;6.870;2023-02-22T10:50:19;21.70;;;13.90;;
9712;SDS011;4895;50.926;6.870;2023-02-22T10:52:44;26.80;;;13.10;;
9712;SDS011;4895;50.926;6.870;2023-02-22T10:55:11;25.30;;;13.77;;
9712;SDS011;4895;50.926;6.870;2023-02-22T10:57:38;24.37;;;14.00;;
9712;SDS011;4895;50.926;6.870;2023-02-22T11:03:20;21.13;;;13.53;;
9712;SDS011;4895;50.926;6.870;2023-02-22T11:05:47;25.70;;;14.10;;
9712;SDS011;4895;50.926;6.870;2023-02-22T11:08:14;21.17;;;13.60;;
9712;SDS011;4895;50.926;6.870;2023-02-22T11:10:42;20.97;;;12.50;;
9712;SDS011;4895;50.926;6.870;2023-02-22T11:15:47;21.83;;;13.00;;
9712;SDS011;4895;50.926;6.870;2023-02-22T11:18:20;23.30;;;12.67;;
9712;SDS011;4895;50.926;6.870;2023-02-22T11:20:48;18.40;;;12.37;;
9712;SDS011;4895;50.926;6.870;2023-02-22T11:23:13;21.57;;;12.13;;
9712;SDS011;4895;50.926;6.870;2023-02-22T11:25:47;25.40;;;13.07;;
9712;SDS011;4895;50.926;6.870;2023-02-22T11:28:19;27.33;;;11.70;;
9712;SDS011;4895;50.926;6.870;2023-02-22T11:30:54;18.57;;;10.50;;
9712;SDS011;4895;50.926;6.870;2023-02-22T11:33:21;18.57;;;11.10;;
9712;SDS011;4895;50.926;6.870;2023-02-22T11:35:55;20.97;;;11.17;;
9712;SDS011;4895;50.926;6.870;2023-02-22T11:38:26;16.20;;;10.60;;
9712;SDS011;4895;50.926;6.870;2023-02-22T11:41:06;18.87;;;11.03;;
9712;SDS011;4895;50.926;6.870;2023-02-22T11:43:32;26.37;;;10.70;;
9712;SDS011;4895;50.926;6.870;2023-02-22T11:48:25;20.43;;;10.40;;
9712;SDS011;4895;50.926;6.870;2023-02-22T11:51:02;14.80;;;8.50;;
9712;SDS011;4895;50.926;6.870;2023-02-22T11:56:30;23.50;;;11.50;;
9712;SDS011;4895;50.926;6.870;2023-02-22T11:59:03;15.80;;;8.70;;
9712;SDS011;4895;50.926;6.870;2023-02-22T12:10:32;14.80;;;8.67;;
9712;SDS011;4895;50.926;6.870;2023-02-22T12:13:01;14.00;;;7.93;;
9712;SDS011;4895;50.926;6.870;2023-02-22T12:18:15;17.77;;;8.83;;
9712;SDS011;4895;50.926;6.870;2023-02-22T12:21:08;12.87;;;7.40;;
9712;SDS011;4895;50.926;6.870;2023-02-22T12:26:15;14.43;;;7.53;;
9712;SDS011;4895;50.926;6.870;2023-02-22T12:28:50;11.50;;;6.70;;
9712;SDS011;4895;50.926;6.870;2023-02-22T12:31:42;18.30;;;7.47;;
9712;SDS011;4895;50.926;6.870;2023-02-22T12:41:55;14.10;;;7.90;;
9712;SDS011;4895;50.926;6.870;2023-02-22T12:44:28;11.90;;;7.23;;
9712;SDS011;4895;50.926;6.870;2023-02-22T12:46:59;17.27;;;7.57;;
9712;SDS011;4895;50.926;6.870;2023-02-22T12:49:44;12.10;;;7.57;;
9712;SDS011;4895;50.926;6.870;2023-02-22T12:54:58;14.33;;;7.70;;
9712;SDS011;4895;50.926;6.870;2023-02-22T13:11:41;13.57;;;7.47;;
9712;SDS011;4895;50.926;6.870;2023-02-22T13:19:07;12.47;;;7.70;;
9712;SDS011;4895;50.926;6.870;2023-02-22T13:24:10;19.33;;;7.70;;
9712;SDS011;4895;50.926;6.870;2023-02-22T13:29:12;14.50;;;7.50;;
9712;SDS011;4895;50.926;6.870;2023-02-22T13:43:17;14.10;;;7.43;;
9712;SDS011;4895;50.926;6.870;2023-02-22T13:51:58;13.33;;;7.73;;
9712;SDS011;4895;50.926;6.870;2023-02-22T13:54:19;10.83;;;6.80;;
9712;SDS011;4895;50.926;6.870;2023-02-22T13:56:47;24.73;;;7.53;;
9712;SDS011;4895;50.926;6.870;2023-02-22T13:59:20;15.30;;;7.20;;
9712;SDS011;4895;50.926;6.870;2023-02-22T14:01:48;12.27;;;7.30;;
9712;SDS011;4895;50.926;6.870;2023-02-22T14:04:21;13.70;;;7.20;;
9712;SDS011;4895;50.926;6.870;2023-02-22T14:06:47;13.60;;;7.90;;
9712;SDS011;4895;50.926;6.870;2023-02-22T14:09:18;12.53;;;7.70;;
9712;SDS011;4895;50.926;6.870;2023-02-22T14:12:09;16.77;;;7.83;;
9712;SDS011;4895;50.926;6.870;2023-02-22T14:17:37;18.73;;;7.87;;
9712;SDS011;4895;50.926;6.870;2023-02-22T14:22:39;11.47;;;6.60;;
9712;SDS011;4895;50.926;6.870;2023-02-22T14:25:13;12.00;;;7.60;;
9712;SDS011;4895;50.926;6.870;2023-02-22T14:28:06;13.07;;;7.77;;
9712;SDS011;4895;50.926;6.870;2023-02-22T14:30:35;12.47;;;7.30;;
9712;SDS011;4895;50.926;6.870;2023-02-22T14:33:02;11.87;;;7.80;;
9712;SDS011;4895;50.926;6.870;2023-02-22T14:35:34;15.20;;;8.10;;
9712;SDS011;4895;50.926;6.870;2023-02-22T14:38:03;13.00;;;6.93;;
9712;SDS011;4895;50.926;6.870;2023-02-22T14:40:35;14.43;;;7.20;;
9712;SDS011;4895;50.926;6.870;2023-02-22T14:43:14;9.20;;;6.80;;
9712;SDS011;4895;50.926;6.870;2023-02-22T14:45:54;16.60;;;8.90;;
9712;SDS011;4895;50.926;6.870;2023-02-22T14:51:07;21.97;;;7.70;;
9712;SDS011;4895;50.926;6.870;2023-02-22T14:53:42;15.63;;;8.43;;
9712;SDS011;4895;50.926;6.870;2023-02-22T15:01:38;16.63;;;9.17;;
9712;SDS011;4895;50.926;6.870;2023-02-22T15:04:16;12.50;;;8.10;;
9712;SDS011;4895;50.926;6.870;2023-02-22T15:06:42;13.57;;;7.60;;
9712;SDS011;4895;50.926;6.870;2023-02-22T15:09:11;14.03;;;7.73;;
9712;SDS011;4895;50.926;6.870;2023-02-22T15:11:38;12.90;;;8.13;;
9712;SDS011;4895;50.926;6.870;2023-02-22T15:14:18;19.10;;;7.80;;
9712;SDS011;4895;50.926;6.870;2023-02-22T15:16:48;19.57;;;8.37;;
9712;SDS011;4895;50.926;6.870;2023-02-22T15:19:16;17.87;;;7.63;;
9712;SDS011;4895;50.926;6.870;2023-02-22T15:21:49;13.07;;;7.97;;
9712;SDS011;4895;50.926;6.870;2023-02-22T15:24:19;13.10;;;8.77;;
9712;SDS011;4895;50.926;6.870;2023-02-22T15:26:47;13.00;;;8.10;;
9712;SDS011;4895;50.926;6.870;2023-02-22T15:29:22;17.07;;;8.50;;
9712;SDS011;4895;50.926;6.870;2023-02-22T15:31:53;16.60;;;9.00;;
9712;SDS011;4895;50.926;6.870;2023-02-22T15:34:25;14.27;;;7.83;;
9712;SDS011;4895;50.926;6.870;2023-02-22T15:36:52;11.70;;;7.53;;
9712;SDS011;4895;50.926;6.870;2023-02-22T15:39:20;13.00;;;7.80;;
9712;SDS011;4895;50.926;6.870;2023-02-22T15:42:06;16.43;;;8.53;;
9712;SDS011;4895;50.926;6.870;2023-02-22T15:44:45;17.43;;;8.77;;
9712;SDS011;4895;50.926;6.870;2023-02-22T15:47:15;18.93;;;9.40;;
9712;SDS011;4895;50.926;6.870;2023-02-22T15:49:45;19.47;;;9.20;;
9712;SDS011;4895;50.926;6.870;2023-02-22T15:52:21;18.90;;;9.97;;
9712;SDS011;4895;50.926;6.870;2023-02-22T15:54:49;20.23;;;9.23;;
9712;SDS011;4895;50.926;6.870;2023-02-22T15:57:16;15.30;;;8.80;;
9712;SDS011;4895;50.926;6.870;2023-02-22T15:59:50;16.83;;;8.57;;
9712;SDS011;4895;50.926;6.870;2023-02-22T16:02:18;16.33;;;8.30;;
9712;SDS011;4895;50.926;6.870;2023-02-22T16:07:32;15.80;;;9.03;;
9712;SDS011;4895;50.926;6.870;2023-02-22T16:09:59;13.13;;;8.90;;
9712;SDS011;4895;50.926;6.870;2023-02-22T16:12:32;16.13;;;9.57;;
9712;SDS011;4895;50.926;6.870;2023-02-22T16:14:57;23.40;;;9.30;;
9712;SDS011;4895;50.926;6.870;2023-02-22T16:17:24;16.37;;;8.90;;
9712;SDS011;4895;50.926;6.870;2023-02-22T16:19:56;18.33;;;9.83;;
9712;SDS011;4895;50.926;6.870;2023-02-22T16:22:30;20.57;;;9.07;;
9712;SDS011;4895;50.926;6.870;2023-02-22T16:27:41;18.47;;;8.80;;
9712;SDS011;4895;50.926;6.870;2023-02-22T16:32:46;16.90;;;9.80;;
9712;SDS011;4895;50.926;6.870;2023-02-22T16:35:12;16.17;;;9.40;;
9712;SDS011;4895;50.926;6.870;2023-02-22T16:37:53;24.30;;;9.87;;
9712;SDS011;4895;50.926;6.870;2023-02-22T16:40:24;15.20;;;9.60;;
9712;SDS011;4895;50.926;6.870;2023-02-22T16:42:50;17.80;;;10.20;;
9712;SDS011;4895;50.926;6.870;2023-02-22T16:45:19;12.90;;;8.90;;
9712;SDS011;4895;50.926;6.870;2023-02-22T16:47:45;17.63;;;9.60;;
9712;SDS011;4895;50.926;6.870;2023-02-22T16:50:10;16.87;;;10.27;;
9712;SDS011;4895;50.926;6.870;2023-02-22T16:52:39;14.43;;;9.90;;
9712;SDS011;4895;50.926;6.870;2023-02-22T16:55:05;22.50;;;12.03;;
9712;SDS011;4895;50.926;6.870;2023-02-22T16:57:34;21.27;;;11.57;;
9712;SDS011;4895;50.926;6.870;2023-02-22T17:00:01;14.90;;;10.60;;
9712;SDS011;4895;50.926;6.870;2023-02-22T17:02:31;17.80;;;11.10;;
9712;SDS011;4895;50.926;6.870;2023-02-22T17:04:57;21.80;;;11.67;;
9712;SDS011;4895;50.926;6.870;2023-02-22T17:07:22;19.73;;;10.53;;
9712;SDS011;4895;50.926;6.870;2023-02-22T17:09:48;21.57;;;11.63;;
9712;SDS011;4895;50.926;6.870;2023-02-22T17:12:15;19.50;;;11.23;;
9712;SDS011;4895;50.926;6.870;2023-02-22T17:14:40;20.60;;;12.10;;
9712;SDS011;4895;50.926;6.870;2023-02-22T17:17:09;18.93;;;10.20;;
9712;SDS011;4895;50.926;6.870;2023-02-22T17:19:36;18.60;;;10.30;;
9712;SDS011;4895;50.926;6.870;2023-02-22T17:22:01;22.33;;;12.13;;
9712;SDS011;4895;50.926;6.870;2023-02-22T17:24:30;19.97;;;10.77;;
9712;SDS011;4895;50.926;6.870;2023-02-22T17:26:57;18.23;;;11.00;;
9712;SDS011;4895;50.926;6.870;2023-02-22T17:29:23;30.40;;;10.17;;
9712;SDS011;4895;50.926;6.870;2023-02-22T17:31:49;18.10;;;9.90;;
9712;SDS011;4895;50.926;6.870;2023-02-22T17:34:14;22.97;;;10.80;;
9712;SDS011;4895;50.926;6.870;2023-02-22T17:36:40;29.37;;;12.03;;
9712;SDS011;4895;50.926;6.870;2023-02-22T17:39:05;15.10;;;9.80;;
9712;SDS011;4895;50.926;6.870;2023-02-22T17:41:34;22.70;;;11.67;;
9712;SDS011;4895;50.926;6.870;2023-02-22T17:43:59;19.40;;;12.47;;